createdAt,value
2019-03-18T00:00:05.752Z,88.39
2019-03-18T00:02:34.822Z,88.81
2019-03-18T00:05:03.849Z,88.02
2019-03-18T00:07:32.838Z,88.82
2019-03-18T00:10:01.843Z,90.02
2019-03-18T00:12:30.830Z,90.09
2019-03-18T00:15:01.505Z,90.57
2019-03-18T00:17:30.990Z,89.96
2019-03-18T00:20:00.006Z,89.17
2019-03-18T00:22:28.995Z,89.65
2019-03-18T00:24:58.061Z,89.04
2019-03-18T00:27:27.425Z,89.61
2019-03-18T00:29:56.445Z,88.90
2019-03-18T00:32:25.495Z,90.20
2019-03-18T00:34:54.540Z,90.06
2019-03-18T00:37:23.870Z,89.88
2019-03-18T00:39:52.916Z,89.12
2019-03-18T00:42:22.629Z,89.35
2019-03-18T00:44:51.638Z,88.88
2019-03-18T00:47:20.684Z,88.24
2019-03-18T00:49:50.009Z,87.24
2019-03-18T00:52:19.401Z,88.14
2019-03-18T00:54:49.011Z,87.79
2019-03-18T00:57:18.057Z,88.76
2019-03-18T00:59:47.417Z,88.57
2019-03-18T01:02:16.726Z,88.81
2019-03-18T01:04:45.700Z,89.99
2019-03-18T01:07:15.065Z,89.62
2019-03-18T01:09:44.420Z,89.44
2019-03-18T01:12:13.479Z,89.56
2019-03-18T01:14:42.468Z,90.43
2019-03-18T01:17:11.500Z,90.80
2019-03-18T01:19:40.778Z,91.16
2019-03-18T01:22:10.232Z,90.50
2019-03-18T01:24:40.740Z,90.82
2019-03-18T01:27:09.781Z,90.62
2019-03-18T01:29:39.146Z,90.12
2019-03-18T01:32:08.423Z,90.26
2019-03-18T01:34:37.458Z,90.89
2019-03-18T01:37:06.840Z,90.12
2019-03-18T01:39:35.884Z,89.77
2019-03-18T01:42:04.915Z,89.24
2019-03-18T01:44:34.220Z,88.79
2019-03-18T01:47:03.558Z,88.87
2019-03-18T01:49:32.932Z,88.46
2019-03-18T01:52:01.926Z,89.64
2019-03-18T01:54:31.260Z,89.48
2019-03-18T01:57:00.281Z,89.59
2019-03-18T01:59:29.335Z,90.19
2019-03-18T02:01:58.374Z,90.81
2019-03-18T02:04:27.514Z,89.73
2019-03-18T02:06:56.517Z,89.93
2019-03-18T02:09:25.849Z,90.88
2019-03-18T02:11:54.945Z,90.91
2019-03-18T02:14:24.314Z,91.35
2019-03-18T02:16:53.360Z,91.69
2019-03-18T02:19:22.374Z,92.02
2019-03-18T02:21:51.404Z,91.96
2019-03-18T02:24:20.682Z,91.02
2019-03-18T02:26:49.733Z,91.26
2019-03-18T02:29:18.741Z,91.92
2019-03-18T02:31:47.756Z,90.60
2019-03-18T02:34:17.129Z,90.64
2019-03-18T02:36:46.153Z,90.43
2019-03-18T02:39:15.520Z,90.49
2019-03-18T02:41:45.184Z,91.20
2019-03-18T02:44:14.193Z,91.19
2019-03-18T02:46:43.239Z,91.15
2019-03-18T02:49:12.604Z,90.88
2019-03-18T02:51:41.641Z,90.72
2019-03-18T02:54:10.988Z,91.00
2019-03-18T02:56:40.017Z,90.96
2019-03-18T02:59:09.004Z,91.31
2019-03-18T03:01:38.054Z,91.12
2019-03-18T03:04:07.462Z,91.00
2019-03-18T03:06:36.472Z,90.89
2019-03-18T03:09:07.750Z,90.55
2019-03-18T03:11:36.779Z,90.20
2019-03-18T03:14:05.777Z,90.83
2019-03-18T03:16:34.817Z,90.55
2019-03-18T03:19:03.805Z,91.24
2019-03-18T03:21:33.157Z,90.68
2019-03-18T03:24:02.538Z,91.10
2019-03-18T03:26:31.536Z,90.70
2019-03-18T03:29:00.924Z,90.19
2019-03-18T03:31:30.097Z,89.32
2019-03-18T03:33:59.135Z,89.74
2019-03-18T03:36:28.772Z,90.23
2019-03-18T03:38:57.793Z,90.82
2019-03-18T03:41:26.846Z,91.76
2019-03-18T03:43:55.930Z,91.13
2019-03-18T03:46:25.099Z,91.61
2019-03-18T03:48:54.097Z,91.61
2019-03-18T03:51:23.075Z,90.64
2019-03-18T03:53:52.185Z,90.01
2019-03-18T03:56:21.205Z,90.33
2019-03-18T03:58:50.221Z,90.87
2019-03-18T04:01:19.202Z,90.79
2019-03-18T04:03:48.905Z,90.83
2019-03-18T04:06:18.061Z,91.03
2019-03-18T04:08:47.391Z,91.35
2019-03-18T04:11:16.764Z,91.25
2019-03-18T04:13:45.794Z,91.21
2019-03-18T04:16:14.835Z,91.22
2019-03-18T04:18:43.843Z,90.83
2019-03-18T04:21:12.873Z,90.76
2019-03-18T04:23:41.884Z,90.60
2019-03-18T04:26:11.233Z,90.34
2019-03-18T04:28:40.248Z,90.09
2019-03-18T04:31:09.536Z,90.86
2019-03-18T04:33:39.345Z,91.37
2019-03-18T04:36:08.581Z,91.50
2019-03-18T04:38:37.587Z,91.31
2019-03-18T04:41:06.989Z,91.26
2019-03-18T04:43:35.972Z,91.21
2019-03-18T04:46:05.040Z,91.46
2019-03-18T04:48:34.189Z,90.76
2019-03-18T04:51:03.291Z,90.90
2019-03-18T04:53:32.304Z,90.57
2019-03-18T04:56:01.458Z,90.58
2019-03-18T04:58:30.543Z,91.22
2019-03-18T05:00:59.542Z,91.40
2019-03-18T05:03:28.842Z,91.32
2019-03-18T05:05:58.493Z,91.48
2019-03-18T05:08:27.507Z,91.89
2019-03-18T05:10:56.526Z,92.45
2019-03-18T05:13:26.605Z,92.18
2019-03-18T05:15:55.729Z,92.25
2019-03-18T05:18:24.759Z,92.62
2019-03-18T05:20:54.205Z,93.43
2019-03-18T05:23:23.683Z,93.14
2019-03-18T05:25:53.135Z,93.39
2019-03-18T05:28:22.493Z,93.26
2019-03-18T05:30:51.513Z,93.67
2019-03-18T05:33:20.941Z,94.09
2019-03-18T05:35:50.383Z,94.51
2019-03-18T05:38:19.804Z,94.61
2019-03-18T05:40:49.153Z,94.71
2019-03-18T05:43:19.385Z,94.39
2019-03-18T05:45:48.397Z,94.46
2019-03-18T05:48:17.434Z,94.77
2019-03-18T05:50:46.441Z,94.56
2019-03-18T05:53:15.459Z,94.42
2019-03-18T05:55:44.765Z,94.02
2019-03-18T05:58:14.164Z,93.04
2019-03-18T06:00:43.469Z,93.40
2019-03-18T06:03:12.475Z,93.30
2019-03-18T06:05:41.505Z,93.02
2019-03-18T06:08:11.771Z,93.03
2019-03-18T06:10:41.031Z,92.78
2019-03-18T06:13:10.408Z,92.49
2019-03-18T06:15:39.511Z,92.26
2019-03-18T06:18:08.537Z,92.35
2019-03-18T06:20:37.560Z,91.68
2019-03-18T06:23:06.626Z,91.99
2019-03-18T06:25:35.660Z,92.29
2019-03-18T06:28:04.957Z,91.59
2019-03-18T06:30:34.363Z,91.56
2019-03-18T06:33:03.985Z,92.05
2019-03-18T06:35:33.305Z,92.29
2019-03-18T06:38:02.347Z,92.65
2019-03-18T06:40:31.396Z,92.46
2019-03-18T06:43:00.443Z,92.65
2019-03-18T06:45:29.473Z,92.18
2019-03-18T06:48:04.852Z,91.98
2019-03-18T06:50:29.394Z,92.39
2019-03-18T06:52:58.409Z,92.41
2019-03-18T06:55:27.809Z,92.15
2019-03-18T06:57:57.189Z,92.50
2019-03-18T07:00:27.023Z,92.43
2019-03-18T07:02:57.011Z,92.80
2019-03-18T07:05:26.045Z,92.33
2019-03-18T07:07:55.074Z,92.62
2019-03-18T07:10:24.397Z,92.36
2019-03-18T07:12:53.433Z,92.33
2019-03-18T07:15:22.464Z,93.01
2019-03-18T07:17:51.789Z,92.70
2019-03-18T07:20:20.826Z,92.64
2019-03-18T07:22:49.857Z,92.33
2019-03-18T07:25:18.883Z,92.57
2019-03-18T07:27:47.901Z,92.46
2019-03-18T07:30:16.917Z,92.11
2019-03-18T07:32:45.961Z,92.43
2019-03-18T07:35:14.989Z,92.29
2019-03-18T07:37:44.010Z,92.04
2019-03-18T07:40:13.031Z,91.75
2019-03-18T07:42:42.362Z,91.47
2019-03-18T07:45:12.063Z,90.65
2019-03-18T07:47:41.455Z,89.05
2019-03-18T07:50:10.955Z,87.37
2019-03-18T07:52:39.963Z,87.56
2019-03-18T07:55:09.770Z,86.68
2019-03-18T07:57:39.109Z,85.84
2019-03-18T08:00:09.039Z,85.38
2019-03-18T08:02:38.391Z,85.54
2019-03-18T08:05:08.279Z,84.48
2019-03-18T08:07:37.329Z,85.09
2019-03-18T08:10:06.940Z,84.97
2019-03-18T08:12:35.967Z,85.30
2019-03-18T08:15:05.031Z,84.81
2019-03-18T08:17:34.444Z,84.19
2019-03-18T08:20:03.928Z,83.69
2019-03-18T08:22:33.314Z,82.06
2019-03-18T08:25:02.342Z,81.57
2019-03-18T08:27:32.109Z,81.66
2019-03-18T08:30:01.143Z,81.40
2019-03-18T08:32:30.169Z,80.80
2019-03-18T08:34:59.193Z,80.92
2019-03-18T08:37:28.599Z,79.80
2019-03-18T08:39:57.966Z,80.26
2019-03-18T08:42:27.009Z,81.69
2019-03-18T08:44:56.405Z,81.10
2019-03-18T08:47:25.429Z,80.99
2019-03-18T08:49:54.471Z,80.50
2019-03-18T08:52:23.830Z,79.15
2019-03-18T08:54:52.883Z,78.76
2019-03-18T08:57:21.907Z,79.00
2019-03-18T08:59:50.956Z,79.01
2019-03-18T09:02:20.015Z,78.79
2019-03-18T09:04:49.029Z,77.75
2019-03-18T09:07:18.395Z,78.06
2019-03-18T09:09:47.443Z,79.03
2019-03-18T09:12:16.514Z,79.43
2019-03-18T09:14:45.533Z,78.86
2019-03-18T09:17:14.895Z,79.51
2019-03-18T09:19:43.929Z,77.46
2019-03-18T09:22:12.979Z,77.20
2019-03-18T09:24:42.053Z,77.08
2019-03-18T09:27:11.087Z,76.09
2019-03-18T09:29:40.475Z,75.78
2019-03-18T09:32:09.807Z,74.02
2019-03-18T09:34:39.141Z,73.63
2019-03-18T09:37:08.751Z,72.87
2019-03-18T09:39:38.151Z,71.94
2019-03-18T09:42:07.171Z,67.33
2019-03-18T09:44:36.179Z,66.54
2019-03-18T09:47:05.220Z,66.85
2019-03-18T09:49:34.235Z,65.01
2019-03-18T09:52:03.260Z,64.29
2019-03-18T09:54:32.256Z,63.78
2019-03-18T09:57:01.312Z,64.12
2019-03-18T09:59:30.391Z,56.89
2019-03-18T10:01:59.401Z,58.09
2019-03-18T10:04:28.453Z,58.85
2019-03-18T10:06:57.471Z,58.86
2019-03-18T10:09:26.499Z,58.18
2019-03-18T10:11:55.499Z,59.90
2019-03-18T10:14:24.489Z,54.22
2019-03-18T10:16:53.529Z,57.38
2019-03-18T10:19:33.114Z,58.62
2019-03-18T10:21:53.620Z,57.98
2019-03-18T10:24:22.619Z,56.65
2019-03-18T10:26:51.673Z,56.06
2019-03-18T10:29:21.083Z,56.13
2019-03-18T10:31:50.116Z,59.24
2019-03-18T10:34:19.126Z,58.62
2019-03-18T10:36:48.442Z,58.16
2019-03-18T10:39:17.515Z,57.38
2019-03-18T10:41:47.209Z,60.48
2019-03-18T10:44:16.199Z,62.05
2019-03-18T10:46:45.265Z,62.37
2019-03-18T10:49:14.276Z,64.19
2019-03-18T10:51:43.303Z,63.21
2019-03-18T10:54:12.321Z,66.39
2019-03-18T10:56:41.675Z,67.26
2019-03-18T10:59:11.123Z,69.01
2019-03-18T11:01:40.169Z,68.71
2019-03-18T11:04:09.193Z,70.70
2019-03-18T11:06:38.233Z,72.65
2019-03-18T11:09:08.047Z,72.65
2019-03-18T11:11:37.098Z,74.71
2019-03-18T11:14:06.479Z,75.50
2019-03-18T11:16:36.186Z,78.44
2019-03-18T11:19:05.595Z,80.74
2019-03-18T11:21:34.613Z,80.83
2019-03-18T11:24:03.625Z,79.62
2019-03-18T11:26:32.662Z,77.25
2019-03-18T11:29:01.758Z,79.51
2019-03-18T11:31:31.116Z,77.08
2019-03-18T11:34:00.509Z,75.62
2019-03-18T11:36:31.608Z,70.82
2019-03-18T11:39:00.293Z,74.07
2019-03-18T11:41:29.329Z,72.27
2019-03-18T11:43:58.790Z,73.95
2019-03-18T11:46:28.107Z,74.20
2019-03-18T11:48:57.188Z,74.83
2019-03-18T11:51:26.174Z,72.58
2019-03-18T11:53:55.215Z,72.19
2019-03-18T11:56:24.314Z,71.71
2019-03-18T11:58:53.352Z,68.49
2019-03-18T12:01:22.385Z,65.19
2019-03-18T12:03:51.764Z,64.56
2019-03-18T12:06:20.799Z,63.25
2019-03-18T12:08:50.264Z,63.25
2019-03-18T12:11:19.267Z,60.48
2019-03-18T12:13:48.282Z,59.88
2019-03-18T12:16:17.308Z,58.97
2019-03-18T12:18:46.340Z,58.52
2019-03-18T12:21:16.176Z,55.09
2019-03-18T12:23:45.172Z,53.09
2019-03-18T12:26:14.192Z,55.55
2019-03-18T12:28:43.589Z,56.29
2019-03-18T12:31:12.599Z,57.32
2019-03-18T12:33:41.986Z,55.82
2019-03-18T12:36:11.281Z,56.20
2019-03-18T12:38:40.313Z,57.44
2019-03-18T12:41:09.714Z,58.35
2019-03-18T12:43:39.084Z,56.74
2019-03-18T12:46:08.116Z,58.92
2019-03-18T12:48:37.129Z,59.98
2019-03-18T12:51:06.158Z,61.29
2019-03-18T12:53:35.178Z,62.55
2019-03-18T12:56:04.553Z,62.63
2019-03-18T12:58:33.990Z,60.88
2019-03-18T13:01:12.127Z,58.41
2019-03-18T13:03:34.062Z,57.18
2019-03-18T13:06:03.586Z,59.68
2019-03-18T13:08:32.645Z,62.16
2019-03-18T13:11:01.794Z,64.93
2019-03-18T13:13:30.795Z,66.51
2019-03-18T13:15:59.860Z,68.35
2019-03-18T13:18:29.222Z,67.54
2019-03-18T13:21:07.343Z,66.72
2019-03-18T13:23:29.036Z,66.81
2019-03-18T13:25:58.047Z,66.68
2019-03-18T13:28:27.089Z,66.14
2019-03-18T13:30:56.436Z,67.27
2019-03-18T13:33:25.451Z,68.51
2019-03-18T13:35:54.873Z,68.85
2019-03-18T13:38:24.277Z,68.69
2019-03-18T13:40:53.324Z,69.99
2019-03-18T13:43:22.337Z,69.76
2019-03-18T13:45:55.541Z,66.51
2019-03-18T13:48:22.468Z,66.51
2019-03-18T13:50:51.540Z,63.00
2019-03-18T13:53:20.644Z,57.41
2019-03-18T13:55:49.676Z,55.14
2019-03-18T13:58:18.709Z,54.12
2019-03-18T14:00:47.757Z,52.10
2019-03-18T14:03:17.104Z,52.51
2019-03-18T14:05:46.451Z,54.43
2019-03-18T14:08:15.733Z,56.17
2019-03-18T14:10:45.065Z,57.72
2019-03-18T14:13:14.330Z,60.10
2019-03-18T14:15:43.658Z,61.13
2019-03-18T14:18:12.671Z,60.72
2019-03-18T14:20:42.563Z,58.98
2019-03-18T14:23:11.607Z,58.34
2019-03-18T14:25:40.630Z,60.09
2019-03-18T14:28:09.935Z,56.82
2019-03-18T14:30:39.009Z,56.87
2019-03-18T14:33:08.051Z,57.51
2019-03-18T14:35:37.043Z,58.10
2019-03-18T14:38:06.349Z,56.59
2019-03-18T14:40:35.346Z,54.87
2019-03-18T14:43:04.703Z,53.98
2019-03-18T14:45:34.019Z,54.38
2019-03-18T14:48:03.324Z,53.15
2019-03-18T14:50:32.360Z,51.27
2019-03-18T14:53:01.653Z,54.88
2019-03-18T14:55:30.959Z,53.22
2019-03-18T14:58:00.595Z,51.85
2019-03-18T15:00:29.601Z,54.96
2019-03-18T15:02:58.635Z,51.73
2019-03-18T15:05:27.670Z,52.51
2019-03-18T15:07:56.669Z,52.48
2019-03-18T15:10:25.724Z,54.55
2019-03-18T15:12:54.745Z,54.27
2019-03-18T15:15:23.789Z,51.91
2019-03-18T15:17:52.841Z,49.76
2019-03-18T15:20:22.025Z,47.62
2019-03-18T15:22:51.045Z,49.85
2019-03-18T15:25:21.011Z,51.36
2019-03-18T15:27:50.022Z,55.11
2019-03-18T15:30:19.390Z,54.44
2019-03-18T15:32:48.429Z,48.60
2019-03-18T15:35:17.774Z,52.61
2019-03-18T15:37:47.175Z,50.96
2019-03-18T15:40:17.212Z,47.98
2019-03-18T15:42:46.270Z,50.16
2019-03-18T15:45:15.831Z,56.24
2019-03-18T15:47:44.855Z,51.25
2019-03-18T15:50:15.858Z,55.12
2019-03-18T15:52:45.006Z,53.41
2019-03-18T15:55:14.335Z,54.68
2019-03-18T15:57:43.623Z,55.23
2019-03-18T16:00:14.477Z,54.17
2019-03-18T16:02:43.606Z,52.49
2019-03-18T16:05:12.738Z,55.01
2019-03-18T16:07:41.746Z,55.13
2019-03-18T16:10:11.215Z,54.43
2019-03-18T16:12:40.337Z,53.52
2019-03-18T16:15:10.250Z,54.09
2019-03-18T16:17:41.588Z,53.01
2019-03-18T16:20:12.060Z,54.49
2019-03-18T16:22:41.400Z,57.82
2019-03-18T16:25:11.258Z,55.28
2019-03-18T16:27:40.275Z,55.22
2019-03-18T16:30:10.966Z,55.88
2019-03-18T16:32:39.990Z,55.72
2019-03-18T16:35:09.408Z,55.72
2019-03-18T16:37:39.248Z,55.50
2019-03-18T16:40:09.414Z,57.48
2019-03-18T16:42:38.745Z,54.71
2019-03-18T16:45:08.955Z,54.50
2019-03-18T16:47:38.246Z,57.88
2019-03-18T16:50:08.940Z,56.58
2019-03-18T16:52:37.944Z,55.71
2019-03-18T16:55:07.034Z,55.52
2019-03-18T16:57:36.072Z,58.24
2019-03-18T17:00:05.444Z,55.90
2019-03-18T17:02:34.505Z,57.25
2019-03-18T17:05:03.583Z,57.23
2019-03-18T17:07:32.623Z,58.18
2019-03-18T17:10:01.700Z,57.28
2019-03-18T17:12:30.712Z,58.12
2019-03-18T17:14:59.778Z,57.22
2019-03-18T17:17:28.791Z,56.64
2019-03-18T17:19:58.148Z,57.30
2019-03-18T17:22:27.156Z,58.35
2019-03-18T17:24:56.478Z,62.00
2019-03-18T17:27:26.030Z,58.25
2019-03-18T17:29:55.372Z,59.05
2019-03-18T17:32:24.714Z,59.52
2019-03-18T17:34:53.721Z,61.92
2019-03-18T17:37:22.754Z,61.88
2019-03-18T17:39:51.798Z,63.40
2019-03-18T17:42:21.098Z,63.43
2019-03-18T17:44:50.432Z,65.35
2019-03-18T17:47:19.513Z,66.06
2019-03-18T17:49:48.890Z,66.97
2019-03-18T17:52:17.945Z,68.04
2019-03-18T17:54:46.960Z,69.01
2019-03-18T17:57:15.992Z,68.80
2019-03-18T17:59:45.014Z,70.37
2019-03-18T18:02:13.996Z,70.83
2019-03-18T18:04:43.045Z,70.83
2019-03-18T18:07:12.089Z,70.85
2019-03-18T18:09:41.398Z,71.49
2019-03-18T18:12:10.949Z,70.54
2019-03-18T18:14:40.034Z,70.54
2019-03-18T18:17:09.084Z,71.33
2019-03-18T18:19:38.125Z,71.38
2019-03-18T18:22:07.447Z,70.56
2019-03-18T18:24:37.080Z,70.67
2019-03-18T18:27:06.071Z,71.23
2019-03-18T18:29:35.671Z,70.92
2019-03-18T18:32:04.809Z,72.37
2019-03-18T18:34:33.824Z,71.86
2019-03-18T18:37:02.850Z,73.90
2019-03-18T18:39:31.921Z,72.86
2019-03-18T18:42:01.237Z,72.56
2019-03-18T18:44:30.317Z,72.91
2019-03-18T18:46:59.358Z,73.59
2019-03-18T18:49:28.426Z,73.57
2019-03-18T18:51:57.438Z,72.51
2019-03-18T18:54:26.561Z,72.12
2019-03-18T18:56:56.016Z,72.36
2019-03-18T18:59:25.337Z,73.04
2019-03-18T19:01:54.360Z,73.90
2019-03-18T19:04:23.807Z,74.43
2019-03-18T19:06:52.849Z,74.19
2019-03-18T19:09:21.859Z,74.31
2019-03-18T19:11:50.888Z,75.57
2019-03-18T19:14:20.188Z,76.01
2019-03-18T19:16:49.224Z,75.71
2019-03-18T19:19:18.256Z,76.53
2019-03-18T19:21:47.280Z,77.27
2019-03-18T19:24:16.583Z,78.22
2019-03-18T19:26:45.688Z,78.31
2019-03-18T19:29:14.812Z,78.50
2019-03-18T19:31:43.869Z,78.53
2019-03-18T19:34:12.921Z,78.05
2019-03-18T19:36:41.890Z,78.15
2019-03-18T19:39:10.912Z,78.26
2019-03-18T19:41:40.461Z,78.41
2019-03-18T19:44:09.556Z,78.42
2019-03-18T19:46:38.604Z,78.23
2019-03-18T19:49:08.006Z,79.06
2019-03-18T19:51:37.053Z,79.49
2019-03-18T19:54:06.134Z,79.66
2019-03-18T19:56:35.184Z,79.92
2019-03-18T19:59:04.279Z,80.27
2019-03-18T20:01:33.371Z,79.78
2019-03-18T20:04:02.504Z,80.09
2019-03-18T20:06:32.274Z,80.72
2019-03-18T20:09:01.396Z,81.11
2019-03-18T20:11:30.524Z,82.35
2019-03-18T20:13:59.536Z,81.36
2019-03-18T20:16:28.566Z,81.68
2019-03-18T20:18:57.614Z,82.30
2019-03-18T20:21:26.737Z,81.39
2019-03-18T20:24:01.124Z,82.11
2019-03-18T20:26:27.358Z,82.58
2019-03-18T20:28:56.654Z,82.52
2019-03-18T20:31:26.297Z,82.60
2019-03-18T20:33:55.344Z,82.88
2019-03-18T20:36:24.405Z,83.17
2019-03-18T20:38:53.437Z,82.88
2019-03-18T20:41:22.492Z,83.12
2019-03-18T20:43:51.485Z,83.29
2019-03-18T20:46:20.523Z,83.37
2019-03-18T20:48:49.995Z,83.70
2019-03-18T20:51:19.029Z,83.33
2019-03-18T20:53:48.939Z,82.54
2019-03-18T20:56:18.223Z,83.02
2019-03-18T20:58:47.277Z,83.84
2019-03-18T21:01:16.339Z,84.55
2019-03-18T21:03:45.431Z,84.74
2019-03-18T21:06:14.809Z,84.58
2019-03-18T21:08:43.876Z,85.01
2019-03-18T21:11:12.943Z,85.75
2019-03-18T21:13:41.983Z,85.30
2019-03-18T21:16:11.001Z,85.25
2019-03-18T21:18:40.289Z,85.05
2019-03-18T21:21:09.305Z,85.28
2019-03-18T21:23:38.631Z,85.58
2019-03-18T21:26:07.688Z,85.88
2019-03-18T21:28:41.152Z,86.20
2019-03-18T21:31:07.771Z,85.81
2019-03-18T21:33:37.047Z,86.01
2019-03-18T21:36:06.343Z,86.33
2019-03-18T21:38:35.635Z,85.86
2019-03-18T21:41:04.953Z,86.06
2019-03-18T21:43:34.554Z,85.94
2019-03-18T21:46:03.649Z,86.04
2019-03-18T21:48:33.177Z,86.44
2019-03-18T21:51:02.185Z,86.27
2019-03-18T21:53:31.201Z,86.09
2019-03-18T21:56:00.575Z,85.81
2019-03-18T21:58:29.625Z,85.93
2019-03-18T22:00:58.955Z,85.93
2019-03-18T22:03:28.195Z,86.68
2019-03-18T22:05:57.249Z,87.00
2019-03-18T22:08:26.281Z,86.01
2019-03-18T22:10:55.378Z,86.47
2019-03-18T22:13:24.440Z,86.26
2019-03-18T22:15:53.712Z,86.60
2019-03-18T22:18:22.787Z,86.94
2019-03-18T22:20:51.781Z,86.57
2019-03-18T22:23:20.820Z,86.71
2019-03-18T22:25:49.869Z,86.60
2019-03-18T22:28:19.199Z,86.83
2019-03-18T22:30:48.490Z,87.54
2019-03-18T22:33:17.819Z,87.32
2019-03-18T22:35:46.849Z,87.03
2019-03-18T22:38:15.883Z,87.52
2019-03-18T22:40:44.915Z,87.44
2019-03-18T22:43:14.209Z,87.61
2019-03-18T22:45:43.253Z,87.89
2019-03-18T22:48:12.261Z,87.39
2019-03-18T22:50:41.315Z,88.19
2019-03-18T22:53:10.869Z,87.96
2019-03-18T22:55:39.907Z,88.14
2019-03-18T22:58:08.929Z,88.13
2019-03-18T23:00:44.673Z,88.33
2019-03-18T23:03:13.955Z,87.50
2019-03-18T23:05:46.153Z,87.94
2019-03-18T23:08:15.190Z,87.55
2019-03-18T23:10:44.188Z,87.79
2019-03-18T23:13:13.222Z,88.02
2019-03-18T23:15:42.227Z,87.09
2019-03-18T23:18:11.289Z,88.35
2019-03-18T23:20:40.368Z,88.53
2019-03-18T23:23:09.619Z,88.34
2019-03-18T23:25:38.893Z,88.61
2019-03-18T23:28:08.187Z,88.62
2019-03-18T23:30:37.218Z,88.90
2019-03-18T23:33:06.601Z,88.48
2019-03-18T23:35:35.615Z,88.17
2019-03-18T23:38:04.619Z,87.44
2019-03-18T23:40:33.650Z,87.86
2019-03-18T23:43:02.771Z,87.22
2019-03-18T23:45:32.142Z,87.80
2019-03-18T23:48:01.141Z,87.81
2019-03-18T23:50:30.535Z,88.18
2019-03-18T23:52:59.537Z,88.27
2019-03-18T23:55:28.884Z,88.42
2019-03-18T23:57:57.912Z,88.75
